Terminal Aerodrome Forecast
Issued by NWS Newport/Morehead City, NC

Home | Current Version | Previous Version | Graphics & Text | Print | Product List | Glossary On
Versions: 1 2 3 4 5 6 7 8 9 10 11 12 13 14 15 16 17
000
FTUS42 KMHX 181121
TAFEWN
TAF
KEWN 181121Z 1812/1912 24009KT P6SM VCSH OVC080
     FM181500 26010KT 6SM -SHRA OVC020
     FM181700 29011KT 6SM -SHRA BKN040
     FM182100 31011KT P6SM FEW250=

USA.gov is the U.S. government's official web portal to all federal, state and local government web resources and services.